Time;durP1;ratioP1;P1;durP2;ratioP2;P2;SDS_P1;SDS_P2;PMS_P1;PMS_P2;Temp;Humidity;BMP_temperature;BMP_pressure;BME280_temperature;BME280_humidity;BME280_pressure;Samples;Min_cycle;Max_cycle;Signal;HPM_P1;HPM_P2
2021/03/26 00:01:25;;;;;;;20.10;3.95;;;;;;;;;;4982898;28;20125;-65
2021/03/26 00:03:51;;;;;;;21.58;4.82;;;;;;;;;;4989284;28;20040;-66
2021/03/26 00:06:19;;;;;;;27.45;4.65;;;;;;;;;;4986828;28;20129;-65
2021/03/26 00:08:44;;;;;;;32.75;4.30;;;;;;;;;;4988390;28;20034;-65
2021/03/26 00:11:10;;;;;;;21.58;5.32;;;;;;;;;;4988653;28;20022;-65
2021/03/26 00:13:36;;;;;;;25.23;5.20;;;;;;;;;;4989457;28;20038;-65
2021/03/26 00:16:02;;;;;;;18.65;3.90;;;;;;;;;;4989204;28;20033;-65
2021/03/26 00:18:27;;;;;;;24.90;4.38;;;;;;;;;;4984919;28;20038;-65
2021/03/26 00:20:53;;;;;;;21.55;4.38;;;;;;;;;;4985268;28;20133;-65
2021/03/26 00:23:18;;;;;;;24.20;5.00;;;;;;;;;;4987875;28;20026;-66
2021/03/26 00:25:43;;;;;;;23.25;4.18;;;;;;;;;;4989287;28;20399;-65
2021/03/26 00:28:09;;;;;;;28.55;4.18;;;;;;;;;;4990050;28;20498;-65
2021/03/26 00:30:35;;;;;;;21.10;3.92;;;;;;;;;;4990370;28;20076;-65
2021/03/26 00:33:01;;;;;;;18.02;4.07;;;;;;;;;;4989505;28;20031;-65
2021/03/26 00:35:26;;;;;;;24.23;4.90;;;;;;;;;;4989857;28;20045;-66
2021/03/26 00:37:52;;;;;;;27.98;4.88;;;;;;;;;;4990213;28;20038;-65
2021/03/26 00:40:19;;;;;;;19.58;4.13;;;;;;;;;;4990010;28;20030;-65
2021/03/26 00:42:44;;;;;;;24.92;4.72;;;;;;;;;;4990252;28;20056;-65
2021/03/26 00:45:11;;;;;;;24.77;3.70;;;;;;;;;;4989670;28;20050;-65
2021/03/26 00:47:36;;;;;;;20.90;3.85;;;;;;;;;;4990037;28;20030;-66
2021/03/26 00:50:03;;;;;;;19.02;3.88;;;;;;;;;;4990119;28;20046;-65
2021/03/26 00:52:28;;;;;;;21.15;4.65;;;;;;;;;;4989779;28;20109;-65
2021/03/26 00:54:54;;;;;;;22.17;4.20;;;;;;;;;;4989272;28;20125;-65
2021/03/26 00:57:19;;;;;;;29.15;6.50;;;;;;;;;;4989966;28;20042;-66
2021/03/26 00:59:44;;;;;;;25.48;4.70;;;;;;;;;;4989880;28;20026;-65
2021/03/26 01:02:09;;;;;;;24.38;4.32;;;;;;;;;;4989702;28;20042;-65
2021/03/26 01:04:35;;;;;;;20.67;4.40;;;;;;;;;;4989816;28;20037;-65
2021/03/26 01:07:00;;;;;;;19.23;4.07;;;;;;;;;;4989287;28;20431;-66
2021/03/26 01:09:26;;;;;;;19.30;3.30;;;;;;;;;;4989918;28;20030;-65
2021/03/26 01:11:51;;;;;;;20.15;3.92;;;;;;;;;;4989597;28;20034;-65
2021/03/26 01:14:18;;;;;;;15.57;3.38;;;;;;;;;;4989722;28;20711;-65
2021/03/26 01:16:43;;;;;;;27.92;4.22;;;;;;;;;;4989131;28;20070;-65
2021/03/26 01:19:09;;;;;;;22.25;4.40;;;;;;;;;;4989745;28;20515;-65
2021/03/26 01:21:36;;;;;;;19.13;3.50;;;;;;;;;;4989565;28;20089;-65
2021/03/26 01:24:02;;;;;;;19.83;4.10;;;;;;;;;;4989646;28;20042;-65
2021/03/26 01:26:27;;;;;;;20.33;3.97;;;;;;;;;;4988938;28;20094;-65
2021/03/26 01:28:53;;;;;;;16.50;2.90;;;;;;;;;;4987146;28;20036;-65
2021/03/26 01:31:18;;;;;;;16.50;3.30;;;;;;;;;;4988370;28;20045;-66
2021/03/26 01:33:44;;;;;;;15.05;3.00;;;;;;;;;;4989629;28;20450;-65
2021/03/26 01:36:10;;;;;;;15.30;3.08;;;;;;;;;;4989301;28;20656;-65
2021/03/26 01:38:35;;;;;;;16.00;2.80;;;;;;;;;;4988891;28;20038;-65
2021/03/26 01:41:02;;;;;;;8.60;2.42;;;;;;;;;;4989157;28;20040;-65
2021/03/26 01:43:36;;;;;;;16.08;2.83;;;;;;;;;;4989446;28;20446;-65
2021/03/26 01:46:03;;;;;;;10.45;2.45;;;;;;;;;;4979801;28;20053;-65
2021/03/26 01:48:33;;;;;;;12.07;2.65;;;;;;;;;;4967234;28;20119;-65
2021/03/26 01:50:59;;;;;;;13.05;2.22;;;;;;;;;;4977963;28;20033;-65
2021/03/26 01:53:25;;;;;;;11.98;2.03;;;;;;;;;;4986484;28;20525;-65
2021/03/26 01:55:52;;;;;;;7.82;1.70;;;;;;;;;;4986495;28;20034;-66
2021/03/26 01:58:18;;;;;;;14.52;1.95;;;;;;;;;;4986431;28;20022;-65
2021/03/26 02:00:46;;;;;;;12.27;2.17;;;;;;;;;;4986093;28;20061;-65
2021/03/26 02:03:22;;;;;;;9.43;2.03;;;;;;;;;;4986593;28;20053;-66
2021/03/26 02:05:49;;;;;;;9.45;2.67;;;;;;;;;;4970347;28;20078;-66
2021/03/26 02:08:17;;;;;;;7.28;2.58;;;;;;;;;;4977776;28;20042;-66
2021/03/26 02:10:43;;;;;;;8.70;2.50;;;;;;;;;;4986546;28;20026;-65
2021/03/26 02:13:09;;;;;;;10.07;2.30;;;;;;;;;;4986202;28;20870;-65
2021/03/26 02:15:43;;;;;;;13.13;2.85;;;;;;;;;;4986086;28;20518;-65
2021/03/26 02:18:20;;;;;;;13.40;2.72;;;;;;;;;;4986209;28;20114;-65
2021/03/26 02:20:47;;;;;;;14.20;2.40;;;;;;;;;;4985855;28;20053;-66
2021/03/26 02:23:14;;;;;;;14.85;2.67;;;;;;;;;;4983654;28;20109;-65
2021/03/26 02:25:40;;;;;;;13.50;2.47;;;;;;;;;;4967133;28;20034;-65
2021/03/26 02:28:05;;;;;;;12.40;3.05;;;;;;;;;;4966571;28;20030;-65
2021/03/26 02:30:32;;;;;;;9.60;2.92;;;;;;;;;;4969786;28;20039;-66
2021/03/26 02:32:58;;;;;;;13.32;2.40;;;;;;;;;;4969230;28;20030;-65
2021/03/26 02:35:24;;;;;;;11.85;2.80;;;;;;;;;;4986153;28;20366;-65
2021/03/26 02:38:18;;;;;;;14.82;2.78;;;;;;;;;;4985964;28;20494;-65
2021/03/26 02:41:04;;;;;;;20.38;2.85;;;;;;;;;;4985059;28;20459;-66
2021/03/26 02:43:38;;;;;;;12.60;2.38;;;;;;;;;;4981017;28;20484;-66
2021/03/26 02:46:14;;;;;;;19.38;2.90;;;;;;;;;;4970537;28;20665;-65
2021/03/26 02:48:48;;;;;;;8.00;2.20;;;;;;;;;;4967169;28;20067;-65
2021/03/26 02:51:20;;;;;;;11.00;2.55;;;;;;;;;;4967244;28;20035;-65
2021/03/26 02:53:51;;;;;;;9.90;2.17;;;;;;;;;;4966714;28;20031;-65
2021/03/26 02:56:19;;;;;;;13.98;2.30;;;;;;;;;;4979344;28;20042;-65
2021/03/26 02:58:47;;;;;;;16.80;2.58;;;;;;;;;;4986955;28;20100;-65
2021/03/26 03:01:39;;;;;;;14.45;3.45;;;;;;;;;;4989404;28;20042;-65
2021/03/26 03:04:08;;;;;;;16.65;3.08;;;;;;;;;;4970789;28;20050;-65
2021/03/26 03:06:40;;;;;;;12.40;2.45;;;;;;;;;;4970170;28;20042;-65
2021/03/26 03:09:07;;;;;;;21.88;3.00;;;;;;;;;;4970230;28;20510;-65
2021/03/26 03:11:35;;;;;;;14.70;2.58;;;;;;;;;;4980241;28;20033;-66
2021/03/26 03:14:06;;;;;;;10.07;2.50;;;;;;;;;;4990057;28;20588;-65
2021/03/26 03:16:39;;;;;;;9.10;2.92;;;;;;;;;;4989332;28;20045;-65
2021/03/26 03:19:07;;;;;;;11.30;2.33;;;;;;;;;;4985548;28;20074;-65
2021/03/26 03:21:32;;;;;;;20.00;3.30;;;;;;;;;;4970023;28;20074;-65
2021/03/26 03:24:01;;;;;;;11.90;2.30;;;;;;;;;;4969947;28;20062;-65
2021/03/26 03:26:39;;;;;;;20.00;3.80;;;;;;;;;;4969131;28;20100;-66
2021/03/26 03:29:13;;;;;;;21.52;2.80;;;;;;;;;;4969538;28;20038;-65
2021/03/26 03:31:47;;;;;;;17.88;2.80;;;;;;;;;;4969666;28;20031;-65
2021/03/26 03:34:13;;;;;;;14.63;3.70;;;;;;;;;;4970177;28;20046;-66
2021/03/26 03:36:48;;;;;;;16.48;3.47;;;;;;;;;;4978193;28;20590;-65
2021/03/26 03:39:17;;;;;;;17.10;2.67;;;;;;;;;;4988795;28;20038;-65
2021/03/26 03:41:57;;;;;;;20.05;2.80;;;;;;;;;;4988866;28;20042;-65
2021/03/26 03:44:25;;;;;;;15.05;2.75;;;;;;;;;;4989163;28;20085;-65
2021/03/26 03:46:51;;;;;;;21.85;3.00;;;;;;;;;;4976283;28;20676;-65
2021/03/26 03:49:38;;;;;;;23.58;3.60;;;;;;;;;;4968464;28;20620;-65
2021/03/26 03:52:12;;;;;;;12.50;3.00;;;;;;;;;;4968958;28;20073;-66
2021/03/26 03:54:49;;;;;;;12.35;2.47;;;;;;;;;;4976048;28;20037;-65
2021/03/26 03:57:17;;;;;;;20.65;3.25;;;;;;;;;;4987999;28;20487;-65
2021/03/26 03:59:48;;;;;;;19.23;4.07;;;;;;;;;;4988078;28;20710;-65
2021/03/26 04:02:24;;;;;;;14.93;3.20;;;;;;;;;;4973053;28;20058;-65
2021/03/26 04:05:02;;;;;;;17.73;2.67;;;;;;;;;;4969281;28;20034;-65
2021/03/26 04:07:31;;;;;;;20.13;3.63;;;;;;;;;;4968369;28;20492;-65
2021/03/26 04:10:00;;;;;;;11.07;3.33;;;;;;;;;;4967768;28;20843;-65
2021/03/26 04:12:32;;;;;;;11.98;3.45;;;;;;;;;;4978792;28;20042;-65
2021/03/26 04:15:01;;;;;;;19.35;3.13;;;;;;;;;;4988380;28;20050;-65
2021/03/26 04:17:31;;;;;;;15.57;3.00;;;;;;;;;;4988138;28;20114;-65
2021/03/26 04:20:00;;;;;;;19.50;3.10;;;;;;;;;;4987960;28;20168;-65
2021/03/26 04:22:32;;;;;;;22.30;3.92;;;;;;;;;;4988121;28;20483;-66
2021/03/26 04:25:02;;;;;;;20.10;3.50;;;;;;;;;;4988600;28;20038;-66
2021/03/26 04:27:30;;;;;;;21.42;4.82;;;;;;;;;;4988244;28;20391;-65
2021/03/26 04:29:56;;;;;;;17.25;2.92;;;;;;;;;;4983850;28;20030;-65
2021/03/26 04:32:22;;;;;;;13.93;2.95;;;;;;;;;;4977249;28;20030;-65
2021/03/26 04:34:49;;;;;;;17.80;2.88;;;;;;;;;;4988086;28;20038;-65
2021/03/26 04:37:19;;;;;;;26.48;5.55;;;;;;;;;;4987695;28;20767;-65
2021/03/26 04:39:48;;;;;;;18.70;3.40;;;;;;;;;;4987922;28;20037;-66
2021/03/26 04:42:19;;;;;;;15.25;2.95;;;;;;;;;;4984806;28;20280;-65
2021/03/26 04:44:47;;;;;;;20.05;3.42;;;;;;;;;;4982923;28;20070;-66
2021/03/26 04:47:17;;;;;;;14.38;2.85;;;;;;;;;;4968987;28;20114;-65
2021/03/26 04:49:45;;;;;;;15.77;3.13;;;;;;;;;;4968733;28;20042;-66
2021/03/26 04:52:21;;;;;;;19.20;3.15;;;;;;;;;;4968017;28;20039;-66
2021/03/26 04:54:49;;;;;;;18.25;2.80;;;;;;;;;;4968481;28;20030;-66
2021/03/26 04:57:20;;;;;;;18.88;3.08;;;;;;;;;;4968991;28;20039;-65
2021/03/26 04:59:48;;;;;;;15.15;3.15;;;;;;;;;;4981475;28;20018;-65
2021/03/26 05:02:14;;;;;;;20.70;3.22;;;;;;;;;;4967793;28;20050;-65
2021/03/26 05:04:42;;;;;;;27.00;5.03;;;;;;;;;;4967552;28;20113;-65
2021/03/26 05:07:10;;;;;;;16.58;3.17;;;;;;;;;;4967900;28;20062;-66
2021/03/26 05:09:38;;;;;;;15.40;2.83;;;;;;;;;;4981462;28;20072;-66
2021/03/26 05:12:09;;;;;;;11.82;2.85;;;;;;;;;;4987050;28;20041;-66
2021/03/26 05:14:36;;;;;;;22.85;3.45;;;;;;;;;;4987157;28;20030;-66
2021/03/26 05:17:24;;;;;;;18.63;3.25;;;;;;;;;;4987655;28;20026;-65
2021/03/26 05:19:53;;;;;;;17.10;3.40;;;;;;;;;;4987235;28;20383;-65
2021/03/26 05:22:37;;;;;;;20.48;3.30;;;;;;;;;;4986196;28;20053;-65
2021/03/26 05:25:06;;;;;;;19.02;3.13;;;;;;;;;;4986578;28;20983;-65
2021/03/26 05:27:31;;;;;;;18.70;3.22;;;;;;;;;;4986710;28;20038;-65
2021/03/26 05:29:57;;;;;;;17.63;3.10;;;;;;;;;;4986845;28;20060;-65
2021/03/26 05:32:32;;;;;;;18.88;2.90;;;;;;;;;;4986868;28;20031;-65
2021/03/26 05:35:05;;;;;;;24.23;5.75;;;;;;;;;;4985585;28;20030;-66
2021/03/26 05:37:44;;;;;;;14.85;3.50;;;;;;;;;;4966727;28;20055;-65
2021/03/26 05:40:28;;;;;;;16.42;2.65;;;;;;;;;;4967340;28;20041;-65
2021/03/26 05:42:54;;;;;;;13.13;2.63;;;;;;;;;;4967793;28;20125;-65
2021/03/26 05:45:27;;;;;;;19.20;3.20;;;;;;;;;;4979050;28;20058;-65
2021/03/26 05:47:59;;;;;;;23.35;3.45;;;;;;;;;;4986178;28;20046;-65
2021/03/26 05:50:43;;;;;;;16.30;3.22;;;;;;;;;;4986834;28;20144;-65
2021/03/26 05:53:27;;;;;;;15.95;2.90;;;;;;;;;;4977947;28;20841;-65
2021/03/26 05:55:55;;;;;;;20.73;4.18;;;;;;;;;;4967642;28;20062;-65
2021/03/26 05:58:42;;;;;;;10.65;2.88;;;;;;;;;;4966422;28;20391;-65
2021/03/26 06:01:25;;;;;;;22.70;3.40;;;;;;;;;;4967737;28;20035;-65
2021/03/26 06:03:51;;;;;;;16.63;3.22;;;;;;;;;;4966858;28;20045;-65
2021/03/26 06:06:28;;;;;;;21.50;3.35;;;;;;;;;;4986167;28;20038;-65
2021/03/26 06:09:12;;;;;;;12.80;3.30;;;;;;;;;;4984980;28;20510;-65
2021/03/26 06:11:56;;;;;;;26.45;4.90;;;;;;;;;;4986376;28;20240;-65
2021/03/26 06:14:35;;;;;;;16.08;3.38;;;;;;;;;;4986124;28;20455;-65
2021/03/26 06:17:19;;;;;;;18.98;2.67;;;;;;;;;;4986332;28;20045;-65
2021/03/26 06:20:03;;;;;;;20.83;3.47;;;;;;;;;;4984568;28;20037;-65
2021/03/26 06:22:46;;;;;;;10.02;2.38;;;;;;;;;;4966559;28;20043;-65
2021/03/26 06:25:20;;;;;;;20.80;3.85;;;;;;;;;;4967027;28;20042;-65
2021/03/26 06:27:46;;;;;;;24.05;3.22;;;;;;;;;;4983995;28;20034;-66
2021/03/26 06:30:16;;;;;;;20.35;3.55;;;;;;;;;;4985609;28;20396;-65
2021/03/26 06:33:11;;;;;;;14.13;3.63;;;;;;;;;;4987680;28;20034;-65
2021/03/26 06:35:49;;;;;;;24.70;3.80;;;;;;;;;;4989736;28;20093;-64
2021/03/26 06:38:23;;;;;;;11.15;3.10;;;;;;;;;;4978444;28;20035;-65
2021/03/26 06:40:51;;;;;;;22.08;3.67;;;;;;;;;;4989716;28;20033;-65
2021/03/26 06:43:16;;;;;;;14.43;2.67;;;;;;;;;;4985617;28;20136;-65
2021/03/26 06:46:14;;;;;;;20.60;3.22;;;;;;;;;;4985951;28;20137;-66
2021/03/26 06:48:51;;;;;;;20.55;2.80;;;;;;;;;;4988379;28;20042;-65
2021/03/26 06:51:34;;;;;;;18.58;3.38;;;;;;;;;;4990006;28;20037;-65
2021/03/26 06:54:19;;;;;;;15.15;3.42;;;;;;;;;;4987634;28;20372;-65
2021/03/26 06:57:03;;;;;;;16.60;2.85;;;;;;;;;;4984401;28;20070;-65
2021/03/26 06:59:29;;;;;;;23.33;3.47;;;;;;;;;;4970220;28;20041;-65
2021/03/26 07:02:03;;;;;;;20.00;3.50;;;;;;;;;;4970841;28;20042;-65
2021/03/26 07:04:31;;;;;;;12.90;2.78;;;;;;;;;;4969716;28;20879;-65
2021/03/26 07:07:09;;;;;;;20.30;2.97;;;;;;;;;;4970594;28;20046;-65
2021/03/26 07:09:41;;;;;;;14.55;2.92;;;;;;;;;;4969795;28;20591;-66
2021/03/26 07:12:28;;;;;;;14.07;2.80;;;;;;;;;;4973708;28;20080;-66
2021/03/26 07:14:53;;;;;;;20.40;3.13;;;;;;;;;;4978754;28;20086;-65
2021/03/26 07:17:44;;;;;;;14.63;2.45;;;;;;;;;;4969811;28;20042;-65
2021/03/26 07:20:25;;;;;;;18.00;3.53;;;;;;;;;;4968335;28;20058;-66
2021/03/26 07:22:50;;;;;;;19.15;3.17;;;;;;;;;;4969786;28;20122;-65
2021/03/26 07:25:22;;;;;;;21.27;3.85;;;;;;;;;;4986421;28;20169;-65
2021/03/26 07:27:50;;;;;;;12.23;3.42;;;;;;;;;;4988672;28;20053;-65
2021/03/26 07:30:19;;;;;;;19.58;3.78;;;;;;;;;;4989665;28;20057;-66
2021/03/26 07:32:44;;;;;;;21.92;4.43;;;;;;;;;;4989615;28;20192;-66
2021/03/26 07:35:21;;;;;;;15.00;3.60;;;;;;;;;;4988462;28;20130;-65
2021/03/26 07:38:04;;;;;;;21.38;3.15;;;;;;;;;;4989318;28;20045;-66
2021/03/26 07:40:35;;;;;;;15.50;2.85;;;;;;;;;;4989131;28;20084;-65
2021/03/26 07:43:04;;;;;;;19.25;3.85;;;;;;;;;;4978728;28;20082;-66
2021/03/26 07:45:49;;;;;;;15.75;2.58;;;;;;;;;;4983918;28;20050;-66
2021/03/26 07:48:33;;;;;;;23.20;5.05;;;;;;;;;;4988494;28;20380;-65
2021/03/26 07:51:05;;;;;;;14.82;3.15;;;;;;;;;;4989319;28;20034;-65
2021/03/26 07:53:49;;;;;;;20.88;3.67;;;;;;;;;;4989323;28;20034;-65
2021/03/26 07:56:23;;;;;;;16.77;3.33;;;;;;;;;;4988474;28;20487;-65
2021/03/26 07:59:20;;;;;;;28.00;4.97;;;;;;;;;;4988033;28;20026;-65
2021/03/26 08:02:03;;;;;;;21.05;2.88;;;;;;;;;;4994832;28;20042;-66
2021/03/26 08:04:31;;;;;;;21.48;3.28;;;;;;;;;;4997323;28;20454;-65
2021/03/26 08:07:00;;;;;;;15.00;3.08;;;;;;;;;;5002479;28;20040;-65
2021/03/26 08:09:43;;;;;;;26.02;3.33;;;;;;;;;;4989241;28;20100;-65
2021/03/26 08:12:18;;;;;;;14.00;3.28;;;;;;;;;;5007364;28;20479;-65
2021/03/26 08:15:02;;;;;;;15.07;3.50;;;;;;;;;;4995342;28;20034;-65
2021/03/26 08:17:46;;;;;;;23.05;4.55;;;;;;;;;;5004425;28;20033;-65
2021/03/26 08:20:14;;;;;;;26.05;5.75;;;;;;;;;;4995515;28;20430;-65
2021/03/26 08:22:52;;;;;;;26.30;4.18;;;;;;;;;;4985299;28;20860;-65
2021/03/26 08:25:36;;;;;;;13.90;2.75;;;;;;;;;;4985756;28;20030;-66
2021/03/26 08:28:13;;;;;;;11.23;1.95;;;;;;;;;;4986375;28;20395;-65
2021/03/26 08:30:54;;;;;;;9.02;2.58;;;;;;;;;;4984798;28;20046;-65
2021/03/26 08:33:40;;;;;;;8.70;2.08;;;;;;;;;;4986332;28;20875;-65
2021/03/26 08:36:11;;;;;;;14.25;2.33;;;;;;;;;;4986703;28;20052;-65
2021/03/26 08:38:55;;;;;;;11.32;2.75;;;;;;;;;;4986826;28;20647;-66
2021/03/26 08:41:23;;;;;;;9.77;1.90;;;;;;;;;;4986260;28;20030;-66
2021/03/26 08:43:50;;;;;;;7.78;1.88;;;;;;;;;;4986684;28;20061;-65
2021/03/26 08:46:23;;;;;;;8.30;2.47;;;;;;;;;;4987323;28;20026;-65
2021/03/26 08:48:58;;;;;;;11.23;1.92;;;;;;;;;;4987561;28;20057;-65
2021/03/26 08:51:46;;;;;;;7.93;1.83;;;;;;;;;;4982918;28;20037;-65
2021/03/26 08:54:27;;;;;;;10.15;1.67;;;;;;;;;;4980892;28;20038;-66
2021/03/26 08:56:52;;;;;;;12.15;2.55;;;;;;;;;;4971375;28;20122;-65
2021/03/26 08:59:25;;;;;;;10.30;2.35;;;;;;;;;;4972913;28;20121;-66
2021/03/26 09:01:53;;;;;;;11.45;2.33;;;;;;;;;;4979599;28;20434;-65
2021/03/26 09:04:27;;;;;;;13.38;1.90;;;;;;;;;;4982631;28;20034;-65
2021/03/26 09:07:11;;;;;;;9.57;2.08;;;;;;;;;;4989179;28;20046;-65
2021/03/26 09:09:52;;;;;;;4.93;1.63;;;;;;;;;;4990066;28;20034;-66
2021/03/26 09:12:35;;;;;;;4.28;1.25;;;;;;;;;;4982917;28;20061;-65
2021/03/26 09:15:26;;;;;;;13.93;2.03;;;;;;;;;;4987582;28;20088;-65
2021/03/26 09:18:02;;;;;;;7.40;1.70;;;;;;;;;;4987907;28;20101;-65
2021/03/26 09:20:31;;;;;;;7.00;1.15;;;;;;;;;;4987084;28;20038;-65
2021/03/26 09:23:02;;;;;;;7.25;2.03;;;;;;;;;;4984817;28;20048;-66
2021/03/26 09:25:48;;;;;;;7.65;1.50;;;;;;;;;;4979837;28;20037;-66
2021/03/26 09:28:28;;;;;;;3.47;0.95;;;;;;;;;;4984693;28;20041;-65
2021/03/26 09:31:07;;;;;;;3.25;0.95;;;;;;;;;;4983808;28;20496;-66
2021/03/26 09:33:33;;;;;;;2.60;0.77;;;;;;;;;;4984872;28;20026;-66
2021/03/26 09:36:01;;;;;;;3.33;0.98;;;;;;;;;;4988853;28;20117;-65
2021/03/26 09:38:30;;;;;;;3.97;1.10;;;;;;;;;;4989561;28;20065;-65
2021/03/26 09:41:07;;;;;;;5.93;1.52;;;;;;;;;;4983209;28;20019;-65
2021/03/26 09:43:49;;;;;;;5.78;0.95;;;;;;;;;;4988563;28;20310;-66
2021/03/26 09:46:21;;;;;;;4.38;1.10;;;;;;;;;;4989110;28;20466;-65
2021/03/26 09:49:05;;;;;;;5.30;1.00;;;;;;;;;;4981555;28;20033;-65
2021/03/26 09:51:36;;;;;;;3.03;1.05;;;;;;;;;;4988614;28;20045;-65
2021/03/26 09:54:23;;;;;;;2.67;0.85;;;;;;;;;;4984064;28;20349;-66
2021/03/26 09:57:00;;;;;;;2.78;1.00;;;;;;;;;;4977281;28;20554;-65
2021/03/26 09:59:38;;;;;;;4.80;1.40;;;;;;;;;;4987433;28;20114;-66
2021/03/26 10:02:10;;;;;;;6.05;1.20;;;;;;;;;;4986460;28;20120;-66
2021/03/26 10:04:55;;;;;;;5.18;1.20;;;;;;;;;;4987375;28;20065;-65
2021/03/26 10:07:30;;;;;;;9.07;2.22;;;;;;;;;;4987762;28;20045;-65
2021/03/26 10:12:55;;;;;;;4.50;1.77;;;;;;;;;;4993100;28;20368;-65
2021/03/26 10:15:33;;;;;;;4.68;1.10;;;;;;;;;;4986719;28;20066;-65
2021/03/26 10:18:14;;;;;;;8.68;1.40;;;;;;;;;;4983413;28;20034;-66
2021/03/26 10:20:42;;;;;;;6.15;1.75;;;;;;;;;;4991544;28;20034;-65
2021/03/26 10:23:16;;;;;;;8.13;1.33;;;;;;;;;;4996545;28;20045;-65
2021/03/26 10:25:50;;;;;;;4.18;0.80;;;;;;;;;;4996298;28;20439;-65
2021/03/26 10:28:22;;;;;;;5.88;1.25;;;;;;;;;;4996177;28;20069;-65
2021/03/26 10:30:51;;;;;;;2.15;0.90;;;;;;;;;;4993379;28;20113;-65
2021/03/26 10:33:18;;;;;;;5.07;0.95;;;;;;;;;;4981280;28;20347;-65
2021/03/26 10:36:21;;;;;;;4.20;1.10;;;;;;;;;;4980306;28;20121;-65
2021/03/26 10:38:49;;;;;;;2.63;0.75;;;;;;;;;;4971703;28;20050;-65
2021/03/26 10:41:33;;;;;;;1.27;0.82;;;;;;;;;;4962182;28;20071;-65
2021/03/26 10:44:04;;;;;;;4.90;1.00;;;;;;;;;;4978199;28;20134;-65
2021/03/26 10:46:33;;;;;;;11.23;1.40;;;;;;;;;;4987484;28;20104;-65
2021/03/26 10:49:01;;;;;;;7.20;1.10;;;;;;;;;;4985132;28;20062;-65
2021/03/26 10:51:45;;;;;;;5.22;0.90;;;;;;;;;;4988328;28;20038;-65
2021/03/26 10:54:19;;;;;;;2.35;0.80;;;;;;;;;;4979925;28;20037;-65
2021/03/26 10:56:55;;;;;;;2.78;0.90;;;;;;;;;;4979370;28;20796;-66
2021/03/26 10:59:39;;;;;;;5.88;1.08;;;;;;;;;;4994354;28;20498;-65
2021/03/26 11:02:23;;;;;;;4.70;1.08;;;;;;;;;;4980615;28;20447;-66
2021/03/26 11:05:02;;;;;;;6.45;1.10;;;;;;;;;;4984023;28;20033;-65
2021/03/26 11:07:31;;;;;;;2.95;0.73;;;;;;;;;;4984604;28;20039;-65
2021/03/26 11:10:00;;;;;;;2.17;0.80;;;;;;;;;;4982329;28;20026;-65
2021/03/26 11:12:44;;;;;;;5.72;0.90;;;;;;;;;;4987926;28;20042;-65
2021/03/26 11:15:20;;;;;;;5.65;0.80;;;;;;;;;;4994403;28;20030;-65
2021/03/26 11:17:54;;;;;;;6.45;1.02;;;;;;;;;;4995275;28;20074;-65
2021/03/26 11:20:29;;;;;;;6.97;0.93;;;;;;;;;;4989735;28;20061;-66
2021/03/26 11:23:09;;;;;;;5.03;1.10;;;;;;;;;;4980811;28;20110;-65
2021/03/26 11:25:37;;;;;;;7.00;1.83;;;;;;;;;;4992064;28;20057;-65
2021/03/26 11:28:04;;;;;;;5.35;1.30;;;;;;;;;;4986308;28;20389;-65
2021/03/26 11:30:32;;;;;;;4.30;0.88;;;;;;;;;;4972795;28;20467;-66
2021/03/26 11:33:03;;;;;;;5.07;1.00;;;;;;;;;;4973242;28;20031;-65
2021/03/26 11:35:33;;;;;;;3.63;0.90;;;;;;;;;;4973318;28;20125;-65
2021/03/26 11:38:01;;;;;;;5.00;0.90;;;;;;;;;;4972545;28;20037;-65
2021/03/26 11:40:29;;;;;;;5.28;1.13;;;;;;;;;;4992533;28;20048;-65
2021/03/26 11:43:04;;;;;;;8.63;1.25;;;;;;;;;;4993232;28;20034;-65
2021/03/26 11:45:36;;;;;;;5.43;1.02;;;;;;;;;;4982783;28;20059;-65
2021/03/26 11:48:20;;;;;;;10.30;1.15;;;;;;;;;;4980876;28;20035;-66
2021/03/26 11:50:51;;;;;;;2.38;0.60;;;;;;;;;;4972970;28;20115;-65
2021/03/26 11:53:29;;;;;;;7.65;1.25;;;;;;;;;;4973587;28;20035;-65
2021/03/26 11:55:55;;;;;;;5.82;1.10;;;;;;;;;;4992265;28;20038;-65
2021/03/26 11:58:27;;;;;;;3.97;0.90;;;;;;;;;;4992405;28;20034;-65
2021/03/26 12:00:58;;;;;;;7.88;1.17;;;;;;;;;;4992666;28;20022;-65
2021/03/26 12:03:23;;;;;;;6.43;1.10;;;;;;;;;;4992125;28;20387;-65
2021/03/26 12:05:57;;;;;;;5.35;1.60;;;;;;;;;;4981448;28;20041;-65
2021/03/26 12:08:29;;;;;;;4.57;1.20;;;;;;;;;;4972656;28;20042;-65
2021/03/26 12:11:11;;;;;;;9.48;1.10;;;;;;;;;;4973199;28;20027;-65
2021/03/26 12:13:39;;;;;;;6.57;1.60;;;;;;;;;;4972987;28;20050;-66
2021/03/26 12:16:14;;;;;;;6.30;1.55;;;;;;;;;;4972868;28;20022;-65
2021/03/26 12:18:53;;;;;;;4.88;1.15;;;;;;;;;;4972418;28;20034;-65
2021/03/26 12:21:31;;;;;;;4.13;1.08;;;;;;;;;;4990092;28;20049;-66
2021/03/26 12:24:08;;;;;;;5.10;1.00;;;;;;;;;;4992127;28;20034;-65
2021/03/26 12:26:40;;;;;;;4.82;0.98;;;;;;;;;;4992167;28;20022;-65
2021/03/26 12:29:41;;;;;;;3.92;0.90;;;;;;;;;;4979686;28;20031;-65
2021/03/26 12:32:11;;;;;;;3.30;0.75;;;;;;;;;;4950768;29;20023;-66
2021/03/26 12:34:53;;;;;;;7.88;1.15;;;;;;;;;;4968495;28;20054;-65
2021/03/26 12:37:28;;;;;;;8.52;1.88;;;;;;;;;;4983847;28;20105;-65
2021/03/26 12:40:00;;;;;;;8.73;2.00;;;;;;;;;;4980908;28;20042;-65
2021/03/26 12:42:33;;;;;;;11.75;1.52;;;;;;;;;;4972499;28;20121;-65
2021/03/26 12:45:02;;;;;;;6.15;1.50;;;;;;;;;;4984004;28;20054;-66
2021/03/26 12:47:47;;;;;;;7.10;1.42;;;;;;;;;;4977452;28;20031;-65
2021/03/26 12:50:13;;;;;;;16.38;2.85;;;;;;;;;;4975877;28;20038;-65
2021/03/26 12:52:56;;;;;;;5.30;1.25;;;;;;;;;;4989880;28;20027;-66
2021/03/26 12:55:34;;;;;;;8.77;1.80;;;;;;;;;;4974305;28;20464;-65
2021/03/26 12:57:59;;;;;;;12.95;1.20;;;;;;;;;;4972102;28;20375;-66
2021/03/26 13:00:34;;;;;;;8.55;1.85;;;;;;;;;;4986384;28;20145;-65
2021/03/26 13:03:02;;;;;;;9.30;1.08;;;;;;;;;;4977137;28;20038;-65
2021/03/26 13:05:29;;;;;;;9.07;1.60;;;;;;;;;;4976634;28;20124;-66
2021/03/26 13:07:54;;;;;;;5.88;1.10;;;;;;;;;;4982901;28;20031;-65
2021/03/26 13:10:39;;;;;;;8.15;1.30;;;;;;;;;;4980779;28;20022;-65
2021/03/26 13:13:17;;;;;;;4.55;1.20;;;;;;;;;;4957471;28;20050;-65
2021/03/26 13:15:52;;;;;;;8.05;1.40;;;;;;;;;;4971907;28;20176;-66
2021/03/26 13:18:17;;;;;;;4.15;1.05;;;;;;;;;;4977506;28;20038;-66
2021/03/26 13:21:04;;;;;;;5.50;1.20;;;;;;;;;;4973824;28;20034;-65
2021/03/26 13:23:31;;;;;;;5.55;1.17;;;;;;;;;;4970992;28;20115;-66
2021/03/26 13:25:58;;;;;;;9.55;1.65;;;;;;;;;;4970558;28;20407;-65
2021/03/26 13:28:25;;;;;;;4.07;1.30;;;;;;;;;;4986068;28;20043;-65
2021/03/26 13:30:53;;;;;;;4.22;1.63;;;;;;;;;;4990560;28;20030;-66
2021/03/26 13:33:24;;;;;;;6.78;1.45;;;;;;;;;;4990830;28;20030;-66
2021/03/26 13:35:52;;;;;;;10.05;1.67;;;;;;;;;;4991094;28;20060;-66
2021/03/26 13:38:17;;;;;;;8.57;1.15;;;;;;;;;;4991077;28;20109;-66
2021/03/26 13:40:44;;;;;;;7.03;2.17;;;;;;;;;;4983283;28;20138;-65
2021/03/26 13:43:16;;;;;;;6.43;1.80;;;;;;;;;;4982770;28;20034;-65
2021/03/26 13:45:56;;;;;;;8.93;2.03;;;;;;;;;;4970965;28;20058;-66
2021/03/26 13:48:23;;;;;;;10.48;1.83;;;;;;;;;;4970713;28;20066;-65
2021/03/26 13:51:00;;;;;;;8.20;1.77;;;;;;;;;;4977945;28;20277;-66
2021/03/26 13:53:32;;;;;;;11.05;1.67;;;;;;;;;;4974982;28;20103;-65
2021/03/26 13:56:09;;;;;;;9.13;2.28;;;;;;;;;;4990569;28;20117;-66
2021/03/26 13:58:53;;;;;;;14.65;1.80;;;;;;;;;;4974751;28;20034;-66
2021/03/26 14:01:24;;;;;;;7.25;1.70;;;;;;;;;;4975411;28;20039;-66
2021/03/26 14:03:53;;;;;;;8.90;2.00;;;;;;;;;;4979495;28;20543;-65
2021/03/26 14:06:19;;;;;;;14.35;2.25;;;;;;;;;;4971380;28;20042;-66
2021/03/26 14:08:53;;;;;;;5.57;1.45;;;;;;;;;;4970407;28;20047;-65
2021/03/26 14:11:37;;;;;;;14.43;1.50;;;;;;;;;;4971840;28;20039;-65
2021/03/26 14:14:02;;;;;;;3.92;1.02;;;;;;;;;;4989499;28;20101;-66
2021/03/26 14:16:40;;;;;;;3.75;0.90;;;;;;;;;;4990485;28;20031;-66
2021/03/26 14:19:09;;;;;;;5.80;1.52;;;;;;;;;;4987371;28;20404;-65
2021/03/26 14:21:40;;;;;;;3.08;0.80;;;;;;;;;;4974598;28;20123;-66
2021/03/26 14:24:14;;;;;;;4.57;1.42;;;;;;;;;;4976202;28;20445;-65
2021/03/26 14:26:48;;;;;;;4.63;1.23;;;;;;;;;;4985893;28;20491;-66
2021/03/26 14:29:13;;;;;;;6.32;1.25;;;;;;;;;;4985903;28;20518;-65
2021/03/26 14:31:44;;;;;;;11.90;1.95;;;;;;;;;;5002500;28;20030;-65
2021/03/26 14:34:17;;;;;;;6.78;1.38;;;;;;;;;;4992672;28;20034;-66
2021/03/26 14:36:45;;;;;;;8.00;1.60;;;;;;;;;;4993613;28;20046;-65
2021/03/26 14:39:16;;;;;;;9.98;1.55;;;;;;;;;;4986023;28;20073;-65
2021/03/26 14:41:49;;;;;;;7.50;1.48;;;;;;;;;;4989431;28;20029;-65
2021/03/26 14:44:19;;;;;;;4.65;1.13;;;;;;;;;;4997986;28;20049;-65
2021/03/26 14:47:04;;;;;;;6.50;1.27;;;;;;;;;;4997516;28;20439;-66
2021/03/26 14:49:29;;;;;;;6.03;1.15;;;;;;;;;;4989029;28;20471;-66
2021/03/26 14:51:57;;;;;;;10.65;1.50;;;;;;;;;;4995343;28;20026;-65
2021/03/26 14:54:31;;;;;;;6.78;1.02;;;;;;;;;;4998689;28;20424;-65
2021/03/26 14:57:06;;;;;;;6.88;1.63;;;;;;;;;;5003150;28;20033;-66
2021/03/26 14:59:50;;;;;;;10.27;3.75;;;;;;;;;;5008178;28;20439;-65
2021/03/26 15:02:15;;;;;;;11.10;2.03;;;;;;;;;;5008925;28;20107;-65
2021/03/26 15:04:42;;;;;;;8.80;2.92;;;;;;;;;;4993707;28;20463;-65
2021/03/26 15:07:10;;;;;;;20.15;7.45;;;;;;;;;;4992859;28;20483;-66
2021/03/26 15:09:35;;;;;;;17.08;5.50;;;;;;;;;;4991953;28;20046;-65
2021/03/26 15:12:06;;;;;;;5.70;1.70;;;;;;;;;;5008176;28;20467;-65